Terminal Aerodrome Forecast
Issued by NWS Cleveland, OH

Home | Current Version | Previous Version | Text Only | Print | Product List | Glossary Off
Versions: 1 2 3 4 5 6 7 8 9 10 11 12 13 14 15 16 17 18 19 20

000
FTUS41 KCLE 292352
TAFCAK
TAF
KCAK 292352Z 3000/3024 10008KT 6SM BR SCT015 OVC045
      TEMPO 3000/3004 3SM -SHRA BR OVC015
     FM300400 14006KT 4SM -SHRA BR BKN007 OVC015
     FM300700 18005KT 3SM BR OVC005
     FM301500 20008KT P6SM OVC012
     FM301900 22010KT P6SM -SHRA OVC025
      TEMPO 3019/3023 3SM TSRA OVC015CB=

USA.gov is the U.S. government's official web portal to all federal, state and local government web resources and services.